home | artists | genres | years | calendar | countries | playbacks | last played

Records of decadence

overviewpopular tracks

Artist Record Year Power Played Added Last Played
Агата Кристи Опиум 1995 30.0 71 1995-08-05 2020-04-14
Агата Кристи Коварство И Любовь 1988 26.0 105 1995-10-05 2019-01-07
Наутилус Помпилиус Титаник 1994 11.2 25 1996-03-05 2015-07-27
Агата Кристи Декаданс 1991 21.0 56 1996-05-05 2019-01-07
Агата Кристи Ураган 1997 18.1 68 1997-04-05 2019-08-05
Наутилус Помпилиус Крылья 1995 9.0 30 1997-07-05 2020-06-07
Наутилус Помпилиус Яблокитай 1997 5.0 15 1998-04-05 2017-05-25
Агата Кристи Два Корабля 1998 0.0 0 1998-08-05 Never
Агата Кристи Второй Фронт 1987 4.2 25 1999-05-05 2018-10-01
Агата Кристи Секрет 2000 1.0 9 2000-08-05 2012-08-16
Агата Кристи Майн Кайф? 2000 14.1 83 2000-08-05 2019-08-05
Агата Кристи Пуля 2001 3.0 15 2001-10-05 2018-10-01
Агата Кристи Триллер Часть 1 2004 27.0 206 2004-12-02 2017-09-20
Агата Кристи Коварство И Любовь (магнитоальбом) 1988 2.0 15 2005-02-18 2012-08-16
Глеб СамойлоFF & The Matrixx Концерт В Минске 28.05.10 2010 0.0 11 2010-08-06 2011-04-03
Агата Кристи Эпилог 2010 21.0 278 2010-08-06 2017-09-13
Gavin Friday Catholic 2011 2.0 8 2011-09-09 2016-01-08
Глеб СамойлоFF & The Matrixx Треш 2011 8.1 22 2011-10-03 2020-06-07
Alien Skin Ghost in the Rain 2012 4.0 14 2012-11-25 2013-04-13
Пикник Певец Декаданса 2012 14.1 66 2012-12-29 2020-06-07
Глеб СамойлоFF & The Matrixx Живые, Но Мёртвые 2013 5.1 13 2013-10-01 2021-01-20
Пикник Мракобесие И Джаз 2007 0.1 1 2014-04-28 2015-04-18
Пикник Железные Мантры 2008 4.0 4 2014-04-28 2015-04-11
Kick Out The JAMS! Aulismedia Music Library 2018.02.18 "Space Oddity" © Sergey Mishenev 2003-2021